createdAt,value
2023-03-31T00:02:15.124Z,2.30
2023-03-31T00:04:46.585Z,3.45
2023-03-31T00:07:14.842Z,3.40
2023-03-31T00:09:46.025Z,2.25
2023-03-31T00:12:16.788Z,2.65
2023-03-31T00:14:44.055Z,3.03
2023-03-31T00:17:11.526Z,3.50
2023-03-31T00:19:40.181Z,2.60
2023-03-31T00:22:07.060Z,2.17
2023-03-31T00:24:34.514Z,2.45
2023-03-31T00:27:03.188Z,4.88
2023-03-31T00:29:30.081Z,3.35
2023-03-31T00:31:56.832Z,2.45
2023-03-31T00:34:23.383Z,2.53
2023-03-31T00:36:49.876Z,2.25
2023-03-31T00:39:18.791Z,4.95
2023-03-31T00:41:45.733Z,2.83
2023-03-31T00:44:24.523Z,3.83
2023-03-31T00:46:52.532Z,2.90
2023-03-31T00:49:40.407Z,2.50
2023-03-31T00:52:09.196Z,2.38
2023-03-31T00:54:37.026Z,2.13
2023-03-31T00:57:06.856Z,7.93
2023-03-31T00:59:38.984Z,2.55
2023-03-31T01:02:05.750Z,4.07
2023-03-31T01:04:38.248Z,5.50
2023-03-31T01:07:16.993Z,3.10
2023-03-31T01:09:48.868Z,2.58
2023-03-31T01:12:17.812Z,3.08
2023-03-31T01:14:44.496Z,2.83
2023-03-31T01:17:11.180Z,2.38
2023-03-31T01:20:01.938Z,4.15
2023-03-31T01:22:59.563Z,2.50
2023-03-31T01:25:26.267Z,5.80
2023-03-31T01:28:23.534Z,2.25
2023-03-31T01:31:27.560Z,3.55
2023-03-31T01:34:20.601Z,2.13
2023-03-31T01:37:23.173Z,4.03
2023-03-31T01:40:10.858Z,4.63
2023-03-31T01:42:43.135Z,2.45
2023-03-31T01:45:34.473Z,2.38
2023-03-31T01:48:08.126Z,2.70
2023-03-31T01:50:53.459Z,2.47
2023-03-31T01:53:34.148Z,3.50
2023-03-31T01:56:23.790Z,1.95
2023-03-31T01:59:02.454Z,2.45
2023-03-31T02:01:41.277Z,3.33
2023-03-31T02:04:14.674Z,4.10
2023-03-31T02:06:46.792Z,2.20
2023-03-31T02:09:19.391Z,2.28
2023-03-31T02:11:48.229Z,2.28
2023-03-31T02:14:21.855Z,1.52
2023-03-31T02:16:52.479Z,2.53
2023-03-31T02:19:23.426Z,2.30
2023-03-31T02:21:51.026Z,2.53
2023-03-31T02:24:20.270Z,2.15
2023-03-31T02:27:20.962Z,3.30
2023-03-31T02:29:48.428Z,2.10
2023-03-31T02:32:20.552Z,2.10
2023-03-31T02:34:47.188Z,2.30
2023-03-31T02:37:14.381Z,1.90
2023-03-31T02:39:44.751Z,2.03
2023-03-31T02:42:11.764Z,2.03
2023-03-31T02:44:39.504Z,1.75
2023-03-31T02:47:09.142Z,2.47
2023-03-31T02:49:39.113Z,2.70
2023-03-31T02:52:15.308Z,2.83
2023-03-31T02:55:02.990Z,3.13
2023-03-31T02:57:44.892Z,2.10
2023-03-31T03:00:36.330Z,2.95
2023-03-31T03:03:18.084Z,2.72
2023-03-31T03:05:59.110Z,2.00
2023-03-31T03:08:40.349Z,3.97
2023-03-31T03:11:26.047Z,4.63
2023-03-31T03:14:22.167Z,4.00
2023-03-31T03:16:55.085Z,2.92
2023-03-31T03:19:23.695Z,3.85
2023-03-31T03:21:50.704Z,2.75
2023-03-31T03:24:18.054Z,2.83
2023-03-31T03:26:45.814Z,5.03
2023-03-31T03:29:15.914Z,2.63
2023-03-31T03:34:09.747Z,3.20
2023-03-31T03:36:40.288Z,2.30
2023-03-31T03:39:07.811Z,2.50
2023-03-31T03:41:34.730Z,2.45
2023-03-31T03:44:01.286Z,2.05
2023-03-31T03:46:27.879Z,3.72
2023-03-31T03:48:54.626Z,3.03
2023-03-31T03:51:21.420Z,2.22
2023-03-31T03:53:47.935Z,6.22
2023-03-31T03:56:14.450Z,3.50
2023-03-31T03:58:41.141Z,2.85
2023-03-31T04:01:07.677Z,2.70
2023-03-31T04:03:34.182Z,2.78
2023-03-31T04:06:00.772Z,2.67
2023-03-31T04:08:27.289Z,2.50
2023-03-31T04:10:53.851Z,5.00
2023-03-31T04:13:20.645Z,4.40
2023-03-31T04:15:47.507Z,4.80
2023-03-31T04:18:23.378Z,5.32
2023-03-31T04:20:54.852Z,5.78
2023-03-31T04:23:23.482Z,5.22
2023-03-31T04:25:52.780Z,6.03
2023-03-31T04:28:20.042Z,7.97
2023-03-31T04:30:46.568Z,5.45
2023-03-31T04:33:15.441Z,4.65
2023-03-31T04:35:52.633Z,3.53
2023-03-31T04:38:22.268Z,6.13
2023-03-31T04:40:51.234Z,4.20
2023-03-31T04:43:19.627Z,5.07
2023-03-31T04:45:46.295Z,7.07
2023-03-31T04:48:13.123Z,5.95
2023-03-31T04:50:40.028Z,5.10
2023-03-31T04:53:06.880Z,5.65
2023-03-31T04:55:33.650Z,8.07
2023-03-31T04:58:00.242Z,6.45
2023-03-31T05:00:26.894Z,6.57
2023-03-31T05:02:53.550Z,5.45
2023-03-31T05:05:20.206Z,7.80
2023-03-31T05:07:46.739Z,5.75
2023-03-31T05:10:13.246Z,5.32
2023-03-31T05:12:40.109Z,7.80
2023-03-31T05:15:07.515Z,8.20
2023-03-31T05:17:35.772Z,4.13
2023-03-31T05:20:06.811Z,5.78
2023-03-31T05:22:37.879Z,4.68
2023-03-31T05:25:06.285Z,4.60
2023-03-31T05:27:33.123Z,8.10
2023-03-31T05:29:59.948Z,6.53
2023-03-31T05:32:27.358Z,6.88
2023-03-31T05:34:57.095Z,10.30
2023-03-31T05:37:25.085Z,6.03
2023-03-31T05:39:51.950Z,9.05
2023-03-31T05:42:19.734Z,6.10
2023-03-31T05:44:46.310Z,8.55
2023-03-31T05:47:13.343Z,11.05
2023-03-31T05:49:39.881Z,7.18
2023-03-31T05:52:07.826Z,7.28
2023-03-31T05:54:34.359Z,3.58
2023-03-31T05:57:00.966Z,6.53
2023-03-31T05:59:27.703Z,6.25
2023-03-31T06:01:54.464Z,7.47
2023-03-31T06:04:21.180Z,4.38
2023-03-31T06:06:50.282Z,5.22
2023-03-31T06:09:17.887Z,4.40
2023-03-31T06:11:44.629Z,5.97
2023-03-31T06:14:11.684Z,4.68
2023-03-31T06:16:38.636Z,4.60
2023-03-31T06:19:05.652Z,4.20
2023-03-31T06:21:33.056Z,4.10
2023-03-31T06:24:00.610Z,4.40
2023-03-31T06:26:27.925Z,3.80
2023-03-31T06:28:54.428Z,6.45
2023-03-31T06:31:23.695Z,8.30
2023-03-31T06:33:51.109Z,4.82
2023-03-31T06:36:19.809Z,5.88
2023-03-31T06:38:46.904Z,6.55
2023-03-31T06:41:15.246Z,7.55
2023-03-31T06:43:42.200Z,5.70
2023-03-31T06:46:09.323Z,7.75
2023-03-31T06:48:36.971Z,5.32
2023-03-31T06:51:06.250Z,8.75
2023-03-31T06:53:33.654Z,6.57
2023-03-31T06:56:00.666Z,5.30
2023-03-31T06:58:29.802Z,7.60
2023-03-31T07:00:57.908Z,5.80
2023-03-31T07:03:25.375Z,6.93
2023-03-31T07:05:53.295Z,4.65
2023-03-31T07:08:21.510Z,5.88
2023-03-31T07:10:49.261Z,5.55
2023-03-31T07:13:17.630Z,8.13
2023-03-31T07:15:46.900Z,6.63
2023-03-31T07:18:15.468Z,4.00
2023-03-31T07:20:42.561Z,4.88
2023-03-31T07:23:09.501Z,4.45
2023-03-31T07:25:36.461Z,6.20
2023-03-31T07:28:04.555Z,4.68
2023-03-31T07:30:31.227Z,5.35
2023-03-31T07:32:58.504Z,4.82
2023-03-31T07:35:25.497Z,5.70
2023-03-31T07:37:52.191Z,5.28
2023-03-31T07:40:27.088Z,6.75
2023-03-31T07:42:54.020Z,3.25
2023-03-31T07:45:22.729Z,5.70
2023-03-31T07:47:50.195Z,2.85
2023-03-31T07:50:17.939Z,3.85
2023-03-31T07:52:46.889Z,4.40
2023-03-31T07:55:13.799Z,3.83
2023-03-31T07:57:41.470Z,3.97
2023-03-31T08:00:10.792Z,6.72
2023-03-31T08:02:37.406Z,4.68
2023-03-31T08:05:05.791Z,4.28
2023-03-31T08:07:36.786Z,4.13
2023-03-31T08:10:06.342Z,5.65
2023-03-31T08:12:32.928Z,4.05
2023-03-31T08:14:59.414Z,4.03
2023-03-31T08:17:26.036Z,4.22
2023-03-31T08:19:52.556Z,5.35
2023-03-31T08:22:19.241Z,5.10
2023-03-31T08:24:47.086Z,3.53
2023-03-31T08:27:13.575Z,4.45
2023-03-31T08:29:40.241Z,3.35
2023-03-31T08:32:07.290Z,6.50
2023-03-31T08:34:34.131Z,5.07
2023-03-31T08:37:00.718Z,7.75
2023-03-31T08:39:27.355Z,4.22
2023-03-31T08:42:00.138Z,5.75
2023-03-31T08:44:38.003Z,5.53
2023-03-31T08:47:07.156Z,6.95
2023-03-31T08:49:43.897Z,5.70
2023-03-31T08:52:15.885Z,5.57
2023-03-31T08:54:47.100Z,3.55
2023-03-31T08:57:22.190Z,5.60
2023-03-31T08:59:49.504Z,4.97
2023-03-31T09:02:33.156Z,6.35
2023-03-31T09:05:08.848Z,4.93
2023-03-31T09:08:13.499Z,5.70
2023-03-31T09:10:39.987Z,4.40
2023-03-31T09:13:38.532Z,7.13
2023-03-31T09:16:38.375Z,4.18
2023-03-31T09:19:15.759Z,4.13
2023-03-31T09:21:47.500Z,6.97
2023-03-31T09:24:17.998Z,4.13
2023-03-31T09:26:50.659Z,3.72
2023-03-31T09:29:24.403Z,3.90
2023-03-31T09:31:51.049Z,4.90
2023-03-31T09:34:28.451Z,4.70
2023-03-31T09:36:55.143Z,3.65
2023-03-31T09:39:21.870Z,3.58
2023-03-31T09:41:51.008Z,5.07
2023-03-31T09:44:45.032Z,5.60
2023-03-31T09:47:29.194Z,3.83
2023-03-31T09:49:56.114Z,6.82
2023-03-31T09:52:35.326Z,5.75
2023-03-31T09:55:05.599Z,9.03
2023-03-31T09:57:35.197Z,6.00
2023-03-31T10:00:13.903Z,6.57
2023-03-31T10:02:58.015Z,5.00
2023-03-31T10:05:41.309Z,4.10
2023-03-31T10:08:20.117Z,3.47
2023-03-31T10:10:52.883Z,5.00
2023-03-31T10:13:23.575Z,6.43
2023-03-31T10:15:55.397Z,5.82
2023-03-31T10:18:33.313Z,4.85
2023-03-31T10:21:02.142Z,3.97
2023-03-31T10:23:32.275Z,4.88
2023-03-31T10:26:00.558Z,3.75
2023-03-31T10:28:30.946Z,5.38
2023-03-31T10:31:03.491Z,3.78
2023-03-31T10:33:36.592Z,5.55
2023-03-31T10:36:10.046Z,9.45
2023-03-31T10:38:42.713Z,4.53
2023-03-31T10:41:09.950Z,3.42
2023-03-31T10:43:48.323Z,3.22
2023-03-31T10:46:14.860Z,3.15
2023-03-31T10:48:44.378Z,4.80
2023-03-31T10:51:19.285Z,2.85
2023-03-31T10:53:51.521Z,5.45
2023-03-31T10:56:39.440Z,6.07
2023-03-31T10:59:06.640Z,4.78
2023-03-31T11:01:57.712Z,4.88
2023-03-31T11:04:43.375Z,2.42
2023-03-31T11:07:29.512Z,3.60
2023-03-31T11:10:11.283Z,3.75
2023-03-31T11:12:45.081Z,3.05
2023-03-31T11:15:29.726Z,5.35
2023-03-31T11:18:18.758Z,3.45
2023-03-31T11:20:54.151Z,3.50
2023-03-31T11:23:36.921Z,4.22
2023-03-31T11:26:18.874Z,6.32
2023-03-31T11:29:16.610Z,4.15
2023-03-31T11:32:26.548Z,2.97
2023-03-31T11:34:55.927Z,3.03
2023-03-31T11:37:22.986Z,3.83
2023-03-31T11:40:00.923Z,6.35
2023-03-31T11:42:46.558Z,2.33
2023-03-31T11:45:18.637Z,3.67
2023-03-31T11:47:49.545Z,2.10
2023-03-31T11:50:23.714Z,4.38
2023-03-31T11:53:16.947Z,4.07
2023-03-31T11:55:48.133Z,3.75
2023-03-31T11:58:28.352Z,4.30
2023-03-31T12:01:14.505Z,3.85
2023-03-31T12:04:09.716Z,3.20
2023-03-31T12:06:41.779Z,5.43
2023-03-31T12:09:27.534Z,5.25
2023-03-31T12:12:19.256Z,4.28
2023-03-31T12:14:53.383Z,4.95
2023-03-31T12:17:29.636Z,3.85
2023-03-31T12:19:57.857Z,4.38
2023-03-31T12:22:24.298Z,2.80
2023-03-31T12:24:52.493Z,4.35
2023-03-31T12:27:37.871Z,2.95
2023-03-31T12:30:10.832Z,3.10
2023-03-31T12:40:55.377Z,3.25
2023-03-31T12:43:25.091Z,1.67
2023-03-31T12:46:21.538Z,2.13
2023-03-31T12:49:24.904Z,2.05
2023-03-31T12:52:19.762Z,3.58
2023-03-31T12:58:32.875Z,3.40
2023-03-31T13:01:16.516Z,2.35
2023-03-31T13:07:02.294Z,3.80
2023-03-31T13:09:31.600Z,2.17
2023-03-31T13:11:58.229Z,1.75
2023-03-31T13:14:30.392Z,2.80
2023-03-31T13:17:30.720Z,1.65
2023-03-31T13:20:17.052Z,2.85
2023-03-31T13:22:48.442Z,2.13
2023-03-31T13:25:30.418Z,2.20
2023-03-31T13:27:59.024Z,2.90
2023-03-31T13:30:37.130Z,2.53
2023-03-31T13:33:22.172Z,1.60
2023-03-31T13:35:57.485Z,3.10
2023-03-31T13:38:51.657Z,2.38
2023-03-31T13:41:30.965Z,2.80
2023-03-31T13:44:14.967Z,4.43
2023-03-31T13:46:56.703Z,2.83
2023-03-31T13:49:51.723Z,3.03
2023-03-31T13:52:33.543Z,1.70
2023-03-31T13:55:21.980Z,2.25
2023-03-31T13:58:24.951Z,1.95
2023-03-31T14:01:14.765Z,3.55
2023-03-31T14:03:47.350Z,2.53
2023-03-31T14:06:32.271Z,3.33
2023-03-31T14:09:05.838Z,2.83
2023-03-31T14:11:33.304Z,2.67
2023-03-31T14:14:17.853Z,3.40
2023-03-31T14:17:02.564Z,3.63
2023-03-31T14:19:31.746Z,2.08
2023-03-31T14:22:35.976Z,2.43
2023-03-31T14:25:08.203Z,3.58
2023-03-31T14:27:56.494Z,3.35
2023-03-31T14:30:47.586Z,2.00
2023-03-31T14:33:34.271Z,2.05
2023-03-31T14:36:15.949Z,2.83
2023-03-31T14:38:43.390Z,1.55
2023-03-31T14:41:20.158Z,2.72
2023-03-31T14:43:51.514Z,2.78
2023-03-31T14:46:22.192Z,2.03
2023-03-31T14:48:51.265Z,2.10
2023-03-31T14:51:29.643Z,2.13
2023-03-31T14:54:00.920Z,2.83
2023-03-31T14:56:41.114Z,2.38
2023-03-31T14:59:08.662Z,1.60
2023-03-31T15:01:38.328Z,2.45
2023-03-31T15:04:12.606Z,2.25
2023-03-31T15:06:42.083Z,1.98
2023-03-31T15:09:18.961Z,3.30
2023-03-31T15:11:47.658Z,3.90
2023-03-31T15:14:14.594Z,3.00
2023-03-31T15:16:43.450Z,2.55
2023-03-31T15:19:22.834Z,2.72
2023-03-31T15:22:01.641Z,3.10
2023-03-31T15:24:29.230Z,3.80
2023-03-31T15:27:03.487Z,5.50
2023-03-31T15:29:38.374Z,1.85
2023-03-31T15:32:13.493Z,4.40
2023-03-31T15:34:43.259Z,2.50
2023-03-31T15:37:10.541Z,1.52
2023-03-31T15:39:38.436Z,3.03
2023-03-31T15:42:07.249Z,4.97
2023-03-31T15:44:37.860Z,5.85
2023-03-31T15:47:12.854Z,2.33
2023-03-31T15:49:54.308Z,3.50
2023-03-31T15:52:53.018Z,4.75
2023-03-31T15:55:39.911Z,2.60
2023-03-31T15:58:11.814Z,2.22
2023-03-31T16:00:47.422Z,2.05
2023-03-31T16:03:18.849Z,3.30
2023-03-31T16:08:44.809Z,3.00
2023-03-31T16:11:17.835Z,1.25
2023-03-31T16:13:50.278Z,1.13
2023-03-31T16:16:21.283Z,4.60
2023-03-31T16:18:51.188Z,0.77
2023-03-31T16:21:28.374Z,1.17
2023-03-31T16:23:58.821Z,1.10
2023-03-31T16:26:28.204Z,0.98
2023-03-31T16:28:57.473Z,0.82
2023-03-31T16:31:34.781Z,0.95
2023-03-31T16:34:03.837Z,0.70
2023-03-31T16:36:31.232Z,1.10
2023-03-31T16:39:01.874Z,2.60
2023-03-31T16:41:29.735Z,2.78
2023-03-31T16:43:56.329Z,1.70
2023-03-31T16:46:23.750Z,1.13
2023-03-31T16:48:51.248Z,2.92
2023-03-31T16:51:19.746Z,0.93
2023-03-31T16:53:47.104Z,1.52
2023-03-31T16:56:14.398Z,2.50
2023-03-31T16:58:42.054Z,1.73
2023-03-31T17:01:10.027Z,3.72
2023-03-31T17:03:38.429Z,3.97
2023-03-31T17:06:11.431Z,3.58
2023-03-31T17:08:39.555Z,3.95
2023-03-31T17:11:10.978Z,2.58
2023-03-31T17:13:38.482Z,2.03
2023-03-31T17:16:17.524Z,3.60
2023-03-31T17:18:53.111Z,1.65
2023-03-31T17:21:19.925Z,1.45
2023-03-31T17:23:46.919Z,2.65
2023-03-31T17:26:14.465Z,0.80
2023-03-31T17:28:41.632Z,1.00
2023-03-31T17:31:26.277Z,1.42
2023-03-31T17:33:52.852Z,7.13
2023-03-31T17:36:19.469Z,2.40
2023-03-31T17:38:46.043Z,0.90
2023-03-31T17:41:13.521Z,1.33
2023-03-31T17:43:40.506Z,1.77
2023-03-31T17:46:11.830Z,2.58
2023-03-31T17:48:39.409Z,1.58
2023-03-31T17:51:12.070Z,3.42
2023-03-31T17:53:39.708Z,2.85
2023-03-31T17:56:06.650Z,2.85
2023-03-31T17:58:33.661Z,2.25
2023-03-31T18:01:00.201Z,2.75
2023-03-31T18:03:29.860Z,3.75
2023-03-31T18:05:56.764Z,4.55
2023-03-31T18:08:23.261Z,3.75
2023-03-31T18:10:50.542Z,1.95
2023-03-31T18:13:17.482Z,2.80
2023-03-31T18:15:49.139Z,1.27
2023-03-31T18:18:15.801Z,1.40
2023-03-31T18:20:42.429Z,1.08
2023-03-31T18:23:08.989Z,2.33
2023-03-31T18:25:36.054Z,1.23
2023-03-31T18:28:03.530Z,1.83
2023-03-31T18:30:30.209Z,7.20
2023-03-31T18:32:57.328Z,6.05
2023-03-31T18:35:24.120Z,3.88
2023-03-31T18:37:50.701Z,3.75
2023-03-31T18:40:17.382Z,1.52
2023-03-31T18:42:43.914Z,2.60
2023-03-31T18:45:10.648Z,1.90
2023-03-31T18:47:37.182Z,0.85
2023-03-31T18:50:04.724Z,1.67
2023-03-31T18:52:31.690Z,1.10
2023-03-31T18:54:58.377Z,3.25
2023-03-31T18:57:25.236Z,0.80
2023-03-31T18:59:51.916Z,1.73
2023-03-31T19:02:18.549Z,0.45
2023-03-31T19:04:45.546Z,0.88
2023-03-31T19:07:12.079Z,1.00
2023-03-31T19:09:38.997Z,1.05
2023-03-31T19:12:05.925Z,0.60
2023-03-31T19:14:33.342Z,1.40
2023-03-31T19:17:00.137Z,0.80
2023-03-31T19:19:27.195Z,2.70
2023-03-31T19:21:54.429Z,0.90
2023-03-31T19:24:20.947Z,0.40
2023-03-31T19:26:47.679Z,0.70
2023-03-31T19:29:14.153Z,0.70
2023-03-31T19:31:41.449Z,1.23
2023-03-31T19:34:11.594Z,1.08
2023-03-31T19:39:06.513Z,2.80
2023-03-31T19:41:34.450Z,1.45
2023-03-31T19:44:01.633Z,2.17
2023-03-31T19:46:28.681Z,1.63
2023-03-31T19:48:55.201Z,2.35
2023-03-31T19:51:21.717Z,2.28
2023-03-31T19:53:48.286Z,2.17
2023-03-31T19:56:17.351Z,1.45
2023-03-31T19:58:44.546Z,2.40
2023-03-31T20:01:17.737Z,2.13
2023-03-31T20:03:44.757Z,2.78
2023-03-31T20:06:13.849Z,1.20
2023-03-31T20:08:42.587Z,2.45
2023-03-31T20:13:40.009Z,2.03
2023-03-31T20:16:11.746Z,1.08
2023-03-31T20:18:38.687Z,1.08
2023-03-31T20:21:06.599Z,1.50
2023-03-31T20:23:34.118Z,0.90
2023-03-31T20:26:01.283Z,1.95
2023-03-31T20:28:29.088Z,3.20
2023-03-31T20:30:58.576Z,1.40
2023-03-31T20:33:26.201Z,1.65
2023-03-31T20:36:27.162Z,3.25
2023-03-31T20:38:54.171Z,2.83
2023-03-31T20:41:23.126Z,3.50
2023-03-31T20:43:50.625Z,2.00
2023-03-31T20:46:17.589Z,2.55
2023-03-31T20:48:47.692Z,1.10
2023-03-31T20:53:47.060Z,4.82
2023-03-31T20:56:17.431Z,1.95
2023-03-31T20:58:44.879Z,1.23
2023-03-31T21:01:13.410Z,1.58
2023-03-31T21:03:41.248Z,2.22
2023-03-31T21:06:11.759Z,1.40
2023-03-31T21:08:39.699Z,2.25
2023-03-31T21:11:06.557Z,1.48
2023-03-31T21:13:33.627Z,3.72
2023-03-31T21:16:01.299Z,1.08
2023-03-31T21:18:29.465Z,4.68
2023-03-31T21:21:01.443Z,1.35
2023-03-31T21:23:29.756Z,3.58
2023-03-31T21:25:58.872Z,1.10
2023-03-31T21:28:28.695Z,1.88
2023-03-31T21:31:00.634Z,1.30
2023-03-31T21:33:28.793Z,2.38
2023-03-31T21:35:56.518Z,0.90
2023-03-31T21:38:23.461Z,0.80
2023-03-31T21:40:54.303Z,1.80
2023-03-31T21:43:22.047Z,1.65
2023-03-31T21:45:50.185Z,1.27
2023-03-31T21:48:16.979Z,1.88
2023-03-31T21:50:46.051Z,1.63
2023-03-31T21:53:12.872Z,2.33
2023-03-31T21:55:39.498Z,5.35
2023-03-31T21:58:06.205Z,2.78
2023-03-31T22:00:32.886Z,1.35
2023-03-31T22:03:16.162Z,1.42
2023-03-31T22:05:46.632Z,2.78
2023-03-31T22:08:13.155Z,2.35
2023-03-31T22:10:39.641Z,2.47
2023-03-31T22:13:06.357Z,1.70
2023-03-31T22:15:33.021Z,2.22
2023-03-31T22:17:59.854Z,1.88
2023-03-31T22:20:26.975Z,2.38
2023-03-31T22:22:53.468Z,3.60
2023-03-31T22:25:19.998Z,1.67
2023-03-31T22:27:46.489Z,1.00
2023-03-31T22:30:13.515Z,4.65
2023-03-31T22:32:40.069Z,2.33
2023-03-31T22:35:07.226Z,3.50
2023-03-31T22:37:33.694Z,4.35
2023-03-31T22:40:00.388Z,5.35
2023-03-31T22:42:26.920Z,2.25
2023-03-31T22:44:53.400Z,1.27
2023-03-31T22:47:20.095Z,1.85
2023-03-31T22:49:46.826Z,1.10
2023-03-31T22:52:13.371Z,1.85
2023-03-31T22:54:41.204Z,1.60
2023-03-31T22:57:08.266Z,1.55
2023-03-31T22:59:36.205Z,2.80
2023-03-31T23:02:03.470Z,3.05
2023-03-31T23:04:30.526Z,4.85
2023-03-31T23:06:57.105Z,3.53
2023-03-31T23:09:24.479Z,2.50
2023-03-31T23:11:51.440Z,2.33
2023-03-31T23:14:17.958Z,2.15
2023-03-31T23:16:44.695Z,3.58
2023-03-31T23:19:12.236Z,2.60
2023-03-31T23:21:38.815Z,0.95
2023-03-31T23:24:05.633Z,2.63
2023-03-31T23:26:33.984Z,2.08
2023-03-31T23:29:01.295Z,1.30
2023-03-31T23:31:30.240Z,2.17
2023-03-31T23:33:58.449Z,3.03
2023-03-31T23:36:25.940Z,1.25
2023-03-31T23:38:55.135Z,2.08
2023-03-31T23:41:26.323Z,2.93
2023-03-31T23:43:53.753Z,4.32
2023-03-31T23:46:21.558Z,3.30
2023-03-31T23:48:48.113Z,1.02
2023-03-31T23:51:14.638Z,1.70
2023-03-31T23:53:41.209Z,1.63
2023-03-31T23:56:10.516Z,2.45
2023-03-31T23:58:37.540Z,1.10
